Time;durP1;ratioP1;P1;durP2;ratioP2;P2;SDS_P1;SDS_P2;PMS_P1;PMS_P2;Temp;Humidity;BMP_temperature;BMP_pressure;BME280_temperature;BME280_humidity;BME280_pressure;Samples;Min_cycle;Max_cycle;Signal;HPM_P1;HPM_P2
2023/12/21 00:01:37;;;;;;;2.30;1.67;;;;;;;4.65;100.00;99467.69;4975611;28;20239;-68
2023/12/21 00:04:06;;;;;;;2.10;1.40;;;;;;;4.70;100.00;99454.53;4967133;28;20615;-69
2023/12/21 00:06:35;;;;;;;3.47;1.17;;;;;;;4.80;100.00;99438.91;4972365;28;20195;-69
2023/12/21 00:09:06;;;;;;;1.50;1.02;;;;;;;4.90;100.00;99437.69;4967555;28;20187;-71
2023/12/21 00:11:35;;;;;;;1.33;0.65;;;;;;;4.92;100.00;99419.56;4970603;28;20739;-70
2023/12/21 00:14:04;;;;;;;1.88;1.20;;;;;;;4.91;100.00;99407.19;4964891;28;20195;-70
2023/12/21 00:16:32;;;;;;;2.42;1.92;;;;;;;4.97;100.00;99411.75;4965023;28;20199;-70
2023/12/21 00:19:02;;;;;;;1.75;1.63;;;;;;;5.06;100.00;99399.81;4965658;28;20212;-71
2023/12/21 00:21:31;;;;;;;1.55;1.35;;;;;;;4.95;100.00;99387.00;4971383;28;20191;-71
2023/12/21 00:24:00;;;;;;;1.35;1.25;;;;;;;5.01;100.00;99380.84;4971520;28;20191;-71
2023/12/21 00:26:28;;;;;;;1.63;1.50;;;;;;;5.11;100.00;99370.53;4975288;28;20273;-72
2023/12/21 00:28:57;;;;;;;2.13;1.35;;;;;;;5.15;100.00;99364.56;4964419;28;20790;-72
2023/12/21 00:31:26;;;;;;;1.42;1.33;;;;;;;5.10;100.00;99355.47;4968666;28;20560;-71
2023/12/21 00:33:55;;;;;;;1.52;1.05;;;;;;;5.19;100.00;99341.66;4971113;28;20639;-70
2023/12/21 00:36:25;;;;;;;1.50;1.33;;;;;;;5.22;100.00;99340.44;4966748;28;20207;-69
2023/12/21 00:38:54;;;;;;;4.82;1.00;;;;;;;5.41;100.00;99336.13;4966640;28;20198;-70
2023/12/21 00:41:22;;;;;;;1.73;1.63;;;;;;;5.46;100.00;99336.31;4972327;28;20702;-69
2023/12/21 00:43:51;;;;;;;3.17;1.73;;;;;;;5.50;100.00;99342.94;4967287;28;20547;-69
2023/12/21 00:46:20;;;;;;;2.15;1.60;;;;;;;5.33;100.00;99323.72;4965090;28;20207;-70
2023/12/21 00:48:49;;;;;;;2.53;1.58;;;;;;;5.52;100.00;99317.53;4968686;28;20188;-71
2023/12/21 00:51:17;;;;;;;1.30;1.20;;;;;;;5.64;100.00;99318.56;4970825;28;20195;-71
2023/12/21 00:53:47;;;;;;;5.15;1.30;;;;;;;5.64;100.00;99318.56;4965564;28;20259;-70
2023/12/21 00:56:16;;;;;;;1.05;0.88;;;;;;;5.67;100.00;99318.13;4975640;28;20215;-72
2023/12/21 00:58:45;;;;;;;2.83;1.35;;;;;;;5.71;100.00;99304.31;4975505;28;20187;-71
2023/12/21 01:01:13;;;;;;;1.42;1.33;;;;;;;5.76;100.00;99305.31;4973941;28;20565;-71
2023/12/21 01:03:42;;;;;;;1.40;1.30;;;;;;;5.82;100.00;99298.28;4967897;28;20286;-71
2023/12/21 01:06:11;;;;;;;1.77;1.10;;;;;;;5.89;100.00;99299.13;4973343;28;20595;-70
2023/12/21 01:08:40;;;;;;;1.30;1.05;;;;;;;5.90;100.00;99276.63;4967907;28;20576;-70
2023/12/21 01:11:10;;;;;;;2.08;1.52;;;;;;;5.94;100.00;99286.72;4973952;28;20191;-70
2023/12/21 01:13:39;;;;;;;2.38;1.40;;;;;;;6.02;100.00;99282.97;4973670;28;20593;-69
2023/12/21 01:16:09;;;;;;;1.23;0.88;;;;;;;6.06;100.00;99274.28;4972235;28;20579;-72
2023/12/21 01:18:38;;;;;;;1.65;1.30;;;;;;;6.06;100.00;99260.03;4974768;28;20250;-68
2023/12/21 01:21:07;;;;;;;1.15;1.05;;;;;;;6.17;100.00;99270.13;4975117;28;20219;-71
2023/12/21 01:23:36;;;;;;;1.40;1.30;;;;;;;6.26;100.00;99265.31;4975823;28;20199;-71
2023/12/21 01:26:05;;;;;;;1.73;0.73;;;;;;;6.31;100.00;99270.88;4972624;28;20223;-70
2023/12/21 01:28:35;;;;;;;1.05;0.75;;;;;;;6.37;100.00;99253.91;4977864;28;20859;-70
2023/12/21 01:31:04;;;;;;;0.90;0.70;;;;;;;6.47;100.00;99244.34;4978256;28;20196;-71
2023/12/21 01:33:33;;;;;;;2.80;1.30;;;;;;;6.42;100.00;99246.84;4971516;28;20247;-70
2023/12/21 01:36:02;;;;;;;5.30;1.58;;;;;;;6.49;100.00;99244.94;4968650;28;20298;-70
2023/12/21 01:38:30;;;;;;;1.00;0.70;;;;;;;6.53;100.00;99248.03;4974868;28;20246;-69
2023/12/21 01:40:59;;;;;;;1.95;0.88;;;;;;;6.55;100.00;99236.03;4971575;28;20561;-69
2023/12/21 01:43:28;;;;;;;1.92;0.80;;;;;;;6.61;100.00;99228.13;4966971;28;20206;-70
2023/12/21 01:46:00;;;;;;;1.13;0.80;;;;;;;6.58;100.00;99220.53;4967472;28;20303;-72
2023/12/21 01:48:31;;;;;;;1.58;1.42;;;;;;;6.63;100.00;99226.06;4964890;28;20201;-70
2023/12/21 01:51:01;;;;;;;1.63;1.20;;;;;;;6.67;100.00;99221.91;4976164;28;20234;-70
2023/12/21 01:53:32;;;;;;;1.42;0.90;;;;;;;6.70;100.00;99199.94;4966547;28;20199;-70
2023/12/21 01:56:06;;;;;;;1.77;1.48;;;;;;;6.66;100.00;99202.25;4965959;28;20215;-71
2023/12/21 01:58:34;;;;;;;1.15;0.63;;;;;;;6.72;100.00;99203.25;4975053;28;20187;-70
2023/12/21 02:01:07;;;;;;;1.00;0.60;;;;;;;6.72;100.00;99196.03;4968108;28;20203;-71
2023/12/21 02:03:38;;;;;;;1.15;0.60;;;;;;;6.79;100.00;99193.25;4978872;28;20566;-68
2023/12/21 02:06:07;;;;;;;1.13;0.75;;;;;;;6.75;100.00;99181.31;4971338;28;20243;-70
2023/12/21 02:08:36;;;;;;;2.17;1.02;;;;;;;6.74;100.00;99171.59;4968514;28;20254;-71
2023/12/21 02:11:09;;;;;;;1.38;1.08;;;;;;;6.76;100.00;99182.97;4974451;28;20202;-71
2023/12/21 02:13:38;;;;;;;2.58;1.20;;;;;;;6.80;100.00;99189.53;4973569;28;20275;-72
2023/12/21 02:16:12;;;;;;;1.27;0.77;;;;;;;6.80;100.00;99157.28;4970746;28;20212;-71
2023/12/21 02:18:42;;;;;;;1.75;0.93;;;;;;;6.72;100.00;99149.50;4971904;28;20193;-70
2023/12/21 02:21:12;;;;;;;1.00;0.77;;;;;;;6.83;100.00;99151.44;4968209;28;20226;-69
2023/12/21 02:23:43;;;;;;;2.17;0.93;;;;;;;6.89;100.00;99145.19;4971259;28;20203;-71
2023/12/21 02:26:13;;;;;;;7.50;0.85;;;;;;;6.85;100.00;99144.81;4966774;28;20278;-70
2023/12/21 02:28:42;;;;;;;1.00;0.80;;;;;;;6.84;100.00;99143.16;4969425;28;20218;-71
2023/12/21 02:31:11;;;;;;;0.90;0.60;;;;;;;6.89;100.00;99146.03;4965886;28;20195;-71
2023/12/21 02:33:40;;;;;;;1.30;0.82;;;;;;;6.84;100.00;99151.25;4973551;28;20363;-70
2023/12/21 02:36:09;;;;;;;1.23;0.68;;;;;;;6.92;100.00;99136.72;4968169;28;20220;-68
2023/12/21 02:38:38;;;;;;;2.95;1.33;;;;;;;6.93;100.00;99124.88;4969149;28;20258;-69
2023/12/21 02:41:07;;;;;;;1.67;0.75;;;;;;;6.98;100.00;99122.34;4973035;28;20211;-70
2023/12/21 02:43:37;;;;;;;1.13;0.88;;;;;;;7.00;100.00;99133.72;4967514;28;20675;-70
2023/12/21 02:46:06;;;;;;;1.00;0.70;;;;;;;7.01;100.00;99121.94;4970669;28;20222;-72
2023/12/21 02:48:35;;;;;;;1.00;0.70;;;;;;;7.08;100.00;99130.75;4966467;28;20195;-70
2023/12/21 02:51:05;;;;;;;1.42;0.70;;;;;;;7.09;100.00;99110.88;4969306;28;20200;-70
2023/12/21 02:53:33;;;;;;;1.00;0.60;;;;;;;7.13;100.00;99120.13;4923689;28;1237148;-69
2023/12/21 02:56:03;;;;;;;1.55;0.80;;;;;;;7.11;100.00;99107.97;4961722;28;20523;-71
2023/12/21 02:58:32;;;;;;;1.13;0.80;;;;;;;7.06;100.00;99108.66;4974960;28;20196;-70
2023/12/21 03:01:03;;;;;;;1.15;0.60;;;;;;;6.98;100.00;99090.09;4970125;28;20204;-70
2023/12/21 03:03:32;;;;;;;0.90;0.70;;;;;;;7.05;100.00;99082.78;4967549;28;20558;-71
2023/12/21 03:06:00;;;;;;;1.48;1.27;;;;;;;7.10;100.00;99082.94;4965575;28;20208;-69
2023/12/21 03:08:29;;;;;;;1.10;0.80;;;;;;;7.10;100.00;99076.75;4969567;28;20199;-71
2023/12/21 03:10:58;;;;;;;1.70;1.13;;;;;;;7.16;100.00;99082.06;4966710;28;20195;-70
2023/12/21 03:13:27;;;;;;;3.28;0.98;;;;;;;7.19;100.00;99086.97;4965686;28;20231;-72
2023/12/21 03:15:56;;;;;;;0.90;0.60;;;;;;;7.14;100.00;99084.13;4967599;28;20244;-70
2023/12/21 03:18:27;;;;;;;1.00;0.73;;;;;;;7.20;100.00;99071.66;4965953;28;20291;-70
2023/12/21 03:20:56;;;;;;;4.80;1.23;;;;;;;7.22;100.00;99073.06;4969436;28;20212;-69
2023/12/21 03:23:24;;;;;;;1.25;0.73;;;;;;;7.28;100.00;99068.66;4969965;28;20238;-71
2023/12/21 03:25:53;;;;;;;1.30;1.02;;;;;;;7.21;100.00;99073.31;4965429;28;20602;-70
2023/12/21 03:28:22;;;;;;;0.90;0.73;;;;;;;7.28;100.00;99069.47;4972851;28;20218;-71
2023/12/21 03:30:51;;;;;;;1.10;0.60;;;;;;;7.34;100.00;99082.03;4971567;28;20179;-71
2023/12/21 03:33:20;;;;;;;1.02;0.93;;;;;;;7.30;100.00;99062.03;4972590;28;20196;-71
2023/12/21 03:35:50;;;;;;;1.85;0.80;;;;;;;7.27;100.00;99046.31;4968626;28;20285;-70
2023/12/21 03:38:19;;;;;;;2.28;0.80;;;;;;;7.35;100.00;99054.09;4972317;28;20697;-69
2023/12/21 03:40:48;;;;;;;1.00;0.80;;;;;;;7.40;100.00;99056.94;4963292;28;20219;-71
2023/12/21 03:43:17;;;;;;;1.33;0.75;;;;;;;7.38;100.00;99052.81;4971306;28;20742;-71
2023/12/21 03:45:46;;;;;;;0.93;0.70;;;;;;;7.44;100.00;99051.91;4962492;28;20282;-70
2023/12/21 03:48:16;;;;;;;1.10;0.98;;;;;;;7.42;100.00;99049.44;4961439;28;20200;-71
2023/12/21 03:50:45;;;;;;;1.23;1.10;;;;;;;7.48;100.00;99047.72;4970201;28;20242;-71
2023/12/21 03:53:16;;;;;;;2.30;1.48;;;;;;;7.57;100.00;99053.59;4972947;28;20306;-70
2023/12/21 03:55:45;;;;;;;1.75;1.65;;;;;;;7.54;100.00;99037.91;4973173;28;20245;-71
2023/12/21 03:58:14;;;;;;;2.65;1.63;;;;;;;7.65;100.00;99037.16;4967048;28;20199;-71
2023/12/21 04:00:43;;;;;;;1.00;0.90;;;;;;;7.63;100.00;99039.25;4968739;28;20206;-70
2023/12/21 04:03:12;;;;;;;2.00;0.95;;;;;;;7.64;100.00;99030.13;4972621;28;20682;-70
2023/12/21 04:05:41;;;;;;;1.33;1.02;;;;;;;7.73;100.00;99026.06;4966772;28;20828;-72
2023/12/21 04:08:10;;;;;;;1.40;1.15;;;;;;;7.71;100.00;99030.84;4965132;28;20274;-70
2023/12/21 04:10:40;;;;;;;3.15;0.93;;;;;;;7.71;100.00;99020.06;4965366;28;20282;-69
2023/12/21 04:13:09;;;;;;;1.58;1.35;;;;;;;7.76;100.00;99014.81;4967159;28;20196;-71
2023/12/21 04:15:38;;;;;;;1.30;0.98;;;;;;;7.77;100.00;99021.84;4969169;28;20243;-69
2023/12/21 04:18:07;;;;;;;1.20;1.00;;;;;;;7.79;100.00;99011.69;4972856;28;20223;-71
2023/12/21 04:20:36;;;;;;;2.05;1.20;;;;;;;7.74;100.00;99022.31;4966522;28;20188;-71
2023/12/21 04:23:06;;;;;;;2.40;1.13;;;;;;;7.79;100.00;99025.16;4966976;28;20199;-68
2023/12/21 04:25:34;;;;;;;1.30;0.93;;;;;;;7.81;100.00;99020.34;4973481;28;20226;-69
2023/12/21 04:28:05;;;;;;;0.90;0.60;;;;;;;7.77;100.00;99019.16;4973696;28;20661;-70
2023/12/21 04:30:34;;;;;;;1.25;0.70;;;;;;;7.83;100.00;99012.84;4973555;28;20203;-69
2023/12/21 04:33:03;;;;;;;1.10;0.95;;;;;;;7.80;100.00;99013.31;4964191;28;20188;-71
2023/12/21 04:35:32;;;;;;;1.38;1.20;;;;;;;7.88;100.00;99010.31;4973238;28;20691;-70
2023/12/21 04:38:01;;;;;;;2.08;1.33;;;;;;;7.86;100.00;99007.00;4970442;28;20191;-71
2023/12/21 04:40:30;;;;;;;1.88;1.55;;;;;;;7.90;100.00;99012.75;4958650;28;20669;-69
2023/12/21 04:42:59;;;;;;;1.48;1.00;;;;;;;7.89;100.00;98998.44;4967660;28;20235;-71
2023/12/21 04:45:29;;;;;;;1.00;0.80;;;;;;;7.93;100.00;99002.34;4969820;28;20211;-70
2023/12/21 04:47:58;;;;;;;1.75;1.35;;;;;;;7.98;100.00;99009.75;4968933;28;20668;-70
2023/12/21 04:50:28;;;;;;;1.42;0.80;;;;;;;7.94;100.00;99012.06;4973129;28;20683;-71
2023/12/21 04:52:57;;;;;;;1.35;0.93;;;;;;;7.99;100.00;99012.19;4967489;28;20199;-71
2023/12/21 04:55:32;;;;;;;2.17;0.90;;;;;;;7.96;100.00;99012.66;4969908;28;20246;-70
2023/12/21 04:58:01;;;;;;;1.70;1.35;;;;;;;8.02;100.00;99014.44;4963750;28;20692;-71
2023/12/21 05:00:31;;;;;;;1.35;1.02;;;;;;;8.06;100.00;99007.53;4961997;28;20184;-69
2023/12/21 05:03:00;;;;;;;1.10;0.90;;;;;;;8.07;100.00;99002.97;4969593;28;20290;-71
2023/12/21 05:05:29;;;;;;;1.10;1.00;;;;;;;8.02;100.00;99003.66;4970362;28;20589;-72
2023/12/21 05:07:58;;;;;;;1.33;1.00;;;;;;;8.02;100.00;98992.88;4967800;28;20282;-71
2023/12/21 05:10:27;;;;;;;1.00;0.90;;;;;;;8.09;100.00;99001.66;4971040;28;20291;-71
2023/12/21 05:12:56;;;;;;;1.90;1.60;;;;;;;8.07;100.00;98992.19;4970701;28;20197;-70
2023/12/21 05:15:25;;;;;;;1.30;1.05;;;;;;;8.09;100.00;98990.06;4963894;28;20223;-69
2023/12/21 05:17:55;;;;;;;1.48;1.38;;;;;;;8.11;100.00;98983.41;4965265;28;20200;-71
2023/12/21 05:20:24;;;;;;;2.08;1.33;;;;;;;8.13;100.00;98975.91;4960050;28;20184;-72
2023/12/21 05:22:53;;;;;;;1.73;0.90;;;;;;;8.17;100.00;98978.97;4975246;28;20204;-71
2023/12/21 05:25:26;;;;;;;1.55;1.30;;;;;;;8.18;100.00;98959.84;4971980;28;20587;-72
2023/12/21 05:27:55;;;;;;;4.72;2.00;;;;;;;8.17;100.00;98960.94;4965675;28;20246;-71
2023/12/21 05:30:24;;;;;;;0.90;0.60;;;;;;;8.17;100.00;98960.94;4962604;28;20187;-72
2023/12/21 05:32:54;;;;;;;2.45;1.20;;;;;;;8.15;100.00;98952.25;4965955;28;20199;-71
2023/12/21 05:35:23;;;;;;;1.85;1.75;;;;;;;8.20;100.00;98952.38;4967906;28;20219;-70
2023/12/21 05:37:52;;;;;;;1.20;1.00;;;;;;;8.21;100.00;98951.31;4977556;28;20590;-72
2023/12/21 05:40:22;;;;;;;1.52;1.30;;;;;;;8.15;100.00;98938.78;4973782;28;20193;-71
2023/12/21 05:42:51;;;;;;;0.90;0.75;;;;;;;8.24;100.00;98940.06;4968193;28;20583;-72
2023/12/21 05:45:20;;;;;;;1.98;1.08;;;;;;;8.18;100.00;98935.59;4969242;28;20295;-72
2023/12/21 05:47:49;;;;;;;1.42;1.25;;;;;;;8.29;100.00;98942.91;4974003;28;20187;-73
2023/12/21 05:50:19;;;;;;;6.05;1.15;;;;;;;8.21;100.00;98928.94;4973861;28;20275;-72
2023/12/21 05:52:51;;;;;;;1.10;1.00;;;;;;;8.25;100.00;98925.53;4966789;28;20687;-72
2023/12/21 05:55:20;;;;;;;1.70;1.20;;;;;;;8.29;100.00;98923.19;4973652;28;20250;-69
2023/12/21 05:57:49;;;;;;;1.92;0.80;;;;;;;8.27;100.00;98928.84;4967991;28;20203;-70
2023/12/21 06:00:19;;;;;;;2.10;0.77;;;;;;;8.22;100.00;98919.81;4972893;28;20282;-71
2023/12/21 06:02:48;;;;;;;1.65;0.70;;;;;;;8.27;100.00;98918.06;4969079;28;20211;-70
2023/12/21 06:05:19;;;;;;;1.00;0.80;;;;;;;8.24;100.00;98896.94;4971037;28;20211;-70
2023/12/21 06:07:47;;;;;;;0.90;0.70;;;;;;;8.27;100.00;98887.59;4963757;28;20283;-71
2023/12/21 06:10:16;;;;;;;2.60;1.73;;;;;;;8.28;100.00;98881.94;4967932;28;20192;-71
2023/12/21 06:12:45;;;;;;;0.90;0.80;;;;;;;8.32;100.00;98889.63;4968858;28;20258;-70
2023/12/21 06:15:15;;;;;;;2.65;1.33;;;;;;;8.36;100.00;98877.31;4968651;28;20703;-71
2023/12/21 06:17:44;;;;;;;2.08;0.75;;;;;;;8.25;100.00;98877.03;4968842;28;20219;-71
2023/12/21 06:20:13;;;;;;;1.30;1.13;;;;;;;8.35;100.00;98872.97;4962389;28;20188;-71
2023/12/21 06:22:44;;;;;;;3.15;1.63;;;;;;;8.28;100.00;98871.16;4973816;28;20227;-71
2023/12/21 06:25:14;;;;;;;1.00;0.80;;;;;;;8.36;100.00;98861.13;4968011;28;20222;-73
2023/12/21 06:27:43;;;;;;;1.45;1.10;;;;;;;8.38;100.00;98859.81;4975468;28;20199;-71
2023/12/21 06:30:12;;;;;;;1.20;0.90;;;;;;;8.43;100.00;98859.09;4975110;28;20192;-70
2023/12/21 06:32:41;;;;;;;0.90;0.60;;;;;;;8.35;100.00;98848.72;4960430;28;20389;-71
2023/12/21 06:35:10;;;;;;;0.80;0.47;;;;;;;8.37;100.00;98847.44;4971279;28;20212;-71
2023/12/21 06:37:39;;;;;;;1.00;0.70;;;;;;;8.42;100.00;98846.72;4967632;28;20685;-69
2023/12/21 06:40:11;;;;;;;0.90;0.60;;;;;;;8.42;100.00;98844.03;4970887;28;20204;-69
2023/12/21 06:42:40;;;;;;;1.20;0.80;;;;;;;8.39;100.00;98831.00;4966325;28;20208;-72
2023/12/21 06:45:11;;;;;;;2.15;1.35;;;;;;;8.43;100.00;98834.84;4973218;28;20344;-70
2023/12/21 06:47:40;;;;;;;1.33;0.70;;;;;;;8.39;100.00;98817.53;4966735;28;20266;-70
2023/12/21 06:50:10;;;;;;;1.20;0.60;;;;;;;8.50;100.00;98808.59;4969382;28;20187;-71
2023/12/21 06:52:39;;;;;;;0.85;0.60;;;;;;;8.51;100.00;98804.84;4967506;28;20251;-71
2023/12/21 06:55:11;;;;;;;1.73;1.40;;;;;;;8.43;100.00;98789.03;4971615;28;20241;-70
2023/12/21 06:57:40;;;;;;;1.42;0.93;;;;;;;8.42;100.00;98782.84;4969646;28;20231;-69
2023/12/21 07:00:10;;;;;;;2.00;1.65;;;;;;;8.45;100.00;98768.91;4968554;28;20251;-70
2023/12/21 07:02:39;;;;;;;1.15;0.95;;;;;;;8.42;100.00;98771.25;4971656;28;20215;-68
2023/12/21 07:05:08;;;;;;;1.38;1.00;;;;;;;8.42;100.00;98755.91;4971698;28;20219;-70
2023/12/21 07:07:37;;;;;;;0.90;0.70;;;;;;;8.45;100.00;98759.97;4971624;28;20250;-71
2023/12/21 07:10:10;;;;;;;1.08;0.80;;;;;;;8.51;100.00;98748.25;4960734;28;20204;-70
2023/12/21 07:12:39;;;;;;;1.38;1.10;;;;;;;8.51;100.00;98737.47;4966948;28;20275;-67
2023/12/21 07:15:08;;;;;;;0.90;0.80;;;;;;;8.54;100.00;98728.88;4970166;28;20283;-71
2023/12/21 07:17:37;;;;;;;2.20;1.48;;;;;;;8.48;100.00;98737.94;4962249;28;20207;-70
2023/12/21 07:20:08;;;;;;;1.00;0.85;;;;;;;8.43;100.00;98716.28;4970300;28;20195;-70
2023/12/21 07:22:37;;;;;;;1.65;0.93;;;;;;;8.44;100.00;98709.84;4968417;28;20183;-70
2023/12/21 07:25:06;;;;;;;1.00;0.60;;;;;;;8.31;100.00;98718.22;4968595;28;20314;-70
2023/12/21 07:27:36;;;;;;;1.98;1.45;;;;;;;8.26;100.00;98703.56;4967266;28;20200;-70
2023/12/21 07:30:07;;;;;;;1.20;0.80;;;;;;;8.17;100.00;98704.19;4971340;28;20202;-71
2023/12/21 07:32:36;;;;;;;2.08;1.13;;;;;;;8.09;100.00;98699.97;4971264;28;20717;-70
2023/12/21 07:35:06;;;;;;;2.42;0.70;;;;;;;8.05;100.00;98687.22;4972698;28;20220;-71
2023/12/21 07:37:34;;;;;;;1.23;0.88;;;;;;;8.02;100.00;98668.84;4965839;28;20190;-71
2023/12/21 07:40:04;;;;;;;1.20;0.88;;;;;;;8.06;100.00;98656.53;4965080;28;20191;-71
2023/12/21 07:42:33;;;;;;;1.95;1.15;;;;;;;8.06;100.00;98640.38;4971548;28;20192;-71
2023/12/21 07:45:03;;;;;;;0.90;0.50;;;;;;;8.06;100.00;98651.97;4972919;28;20220;-71
2023/12/21 07:47:32;;;;;;;1.55;0.60;;;;;;;8.10;100.00;98642.34;4973228;28;20215;-70
2023/12/21 07:50:02;;;;;;;1.70;0.75;;;;;;;8.08;100.00;98630.19;4970477;28;20187;-70
2023/12/21 07:52:31;;;;;;;1.35;0.93;;;;;;;8.13;100.00;98628.38;4974295;28;20278;-69
2023/12/21 07:55:00;;;;;;;1.23;0.90;;;;;;;8.08;100.00;98612.16;4969485;28;20626;-71
2023/12/21 07:57:29;;;;;;;1.25;1.15;;;;;;;8.09;100.00;98602.19;4972420;28;20203;-71
2023/12/21 07:59:58;;;;;;;0.90;0.70;;;;;;;8.10;100.00;98590.34;4970931;28;20206;-69
2023/12/21 08:02:28;;;;;;;1.33;0.80;;;;;;;8.15;100.00;98585.88;4970168;28;20206;-70
2023/12/21 08:04:57;;;;;;;1.27;1.13;;;;;;;8.16;100.00;98565.16;4960431;28;20232;-70
2023/12/21 08:07:26;;;;;;;0.88;0.73;;;;;;;8.09;100.00;98565.28;4961367;28;20283;-71
2023/12/21 08:09:55;;;;;;;1.00;0.60;;;;;;;8.16;100.00;98557.91;4963860;28;20219;-72
2023/12/21 08:12:24;;;;;;;1.15;0.75;;;;;;;8.20;100.00;98544.75;4972520;28;20601;-73
2023/12/21 08:14:53;;;;;;;1.27;1.10;;;;;;;8.18;100.00;98539.59;4971710;28;20222;-70
2023/12/21 08:17:22;;;;;;;2.13;1.10;;;;;;;8.11;100.00;98533.56;4971758;28;20379;-71
2023/12/21 08:19:52;;;;;;;1.42;0.95;;;;;;;8.09;100.00;98527.59;4968985;28;20558;-71
2023/12/21 08:22:22;;;;;;;2.60;1.60;;;;;;;8.10;100.00;98513.06;4973908;28;20183;-70
2023/12/21 08:24:52;;;;;;;0.90;0.60;;;;;;;8.09;100.00;98505.22;4973617;28;20650;-71
2023/12/21 08:27:21;;;;;;;1.02;0.70;;;;;;;8.10;100.00;98502.28;4965863;28;20192;-73
2023/12/21 08:29:50;;;;;;;1.25;1.00;;;;;;;8.16;100.00;98482.47;4959858;28;20195;-70
2023/12/21 08:32:20;;;;;;;1.10;0.95;;;;;;;8.13;100.00;98485.63;4966086;28;20188;-70
2023/12/21 08:34:48;;;;;;;1.10;0.75;;;;;;;8.14;100.00;98464.91;4965689;28;20211;-71
2023/12/21 08:37:19;;;;;;;1.02;0.63;;;;;;;8.15;100.00;98461.97;4963278;28;20663;-70
2023/12/21 08:39:47;;;;;;;0.90;0.60;;;;;;;8.15;100.00;98451.19;4963240;28;20203;-71
2023/12/21 08:42:16;;;;;;;1.13;0.60;;;;;;;8.10;100.00;98448.44;4967040;28;20664;-71
2023/12/21 08:44:46;;;;;;;0.98;0.80;;;;;;;8.17;100.00;98438.31;4972547;28;20274;-69
2023/12/21 08:47:14;;;;;;;1.65;0.80;;;;;;;8.13;100.00;98431.75;4970980;28;20195;-71
2023/12/21 08:49:43;;;;;;;0.90;0.70;;;;;;;8.22;100.00;98424.09;4967393;28;20545;-69
2023/12/21 08:52:13;;;;;;;0.95;0.60;;;;;;;8.22;100.00;98413.31;4970640;28;20203;-70
2023/12/21 08:54:44;;;;;;;0.98;0.70;;;;;;;8.17;100.00;98403.28;4957880;28;20219;-71
2023/12/21 08:57:13;;;;;;;0.90;0.50;;;;;;;8.24;100.00;98400.41;4970959;28;20250;-71
2023/12/21 08:59:44;;;;;;;2.25;0.85;;;;;;;8.24;100.00;98401.22;4960268;28;20600;-70
2023/12/21 09:02:13;;;;;;;0.80;0.50;;;;;;;8.15;100.00;98393.81;4964904;28;20203;-69
2023/12/21 09:04:42;;;;;;;1.00;0.60;;;;;;;8.23;100.00;98388.00;4965087;28;20246;-70
2023/12/21 09:07:12;;;;;;;0.80;0.50;;;;;;;8.26;100.00;98382.13;4973163;28;20283;-69
2023/12/21 09:09:41;;;;;;;0.90;0.50;;;;;;;8.18;100.00;98374.47;4959036;28;20240;-70
2023/12/21 09:12:11;;;;;;;1.35;1.08;;;;;;;8.21;100.00;98361.31;4963299;28;20559;-69
2023/12/21 09:14:42;;;;;;;2.55;1.17;;;;;;;8.28;100.00;98345.78;4972675;28;20210;-68
2023/12/21 09:17:11;;;;;;;1.23;0.60;;;;;;;8.21;100.00;98342.47;4958489;28;20204;-68
2023/12/21 09:19:40;;;;;;;0.95;0.60;;;;;;;8.22;100.00;98341.41;4977206;28;20195;-68
2023/12/21 09:22:08;;;;;;;0.80;0.60;;;;;;;8.28;100.00;98336.88;4976016;28;20206;-70
2023/12/21 09:24:39;;;;;;;1.38;1.25;;;;;;;8.18;100.00;98337.56;4970952;28;20228;-69
2023/12/21 09:27:08;;;;;;;1.00;0.73;;;;;;;8.38;100.00;98325.44;4976969;28;20195;-68
2023/12/21 09:29:38;;;;;;;0.80;0.50;;;;;;;8.32;100.00;98315.69;4968618;28;20274;-69
2023/12/21 09:32:08;;;;;;;2.00;0.93;;;;;;;8.27;100.00;98303.75;4966310;28;20191;-70
2023/12/21 09:34:38;;;;;;;0.80;0.40;;;;;;;8.19;100.00;98312.25;4968995;28;20243;-70
2023/12/21 09:37:07;;;;;;;1.00;0.60;;;;;;;8.24;100.00;98298.03;4973235;28;20193;-68
2023/12/21 09:39:36;;;;;;;0.90;0.70;;;;;;;8.27;100.00;98287.59;4966827;28;20198;-69
2023/12/21 09:42:06;;;;;;;1.00;0.50;;;;;;;8.36;100.00;98281.81;4971003;28;20198;-68
2023/12/21 09:44:38;;;;;;;0.77;0.40;;;;;;;8.36;100.00;98279.91;4961875;28;20219;-68
2023/12/21 09:47:07;;;;;;;1.65;0.82;;;;;;;8.44;100.00;98273.25;4967378;28;20198;-69
2023/12/21 09:49:37;;;;;;;0.80;0.55;;;;;;;8.40;100.00;98266.75;4970552;28;20271;-69
2023/12/21 09:52:08;;;;;;;1.45;0.60;;;;;;;8.44;100.00;98249.00;4967225;28;20195;-69
2023/12/21 09:54:40;;;;;;;1.40;0.75;;;;;;;8.50;100.00;98226.44;4965274;28;20215;-68
2023/12/21 09:57:10;;;;;;;2.28;0.73;;;;;;;8.46;100.00;98236.94;4975993;28;20203;-69
2023/12/21 09:59:40;;;;;;;1.52;0.98;;;;;;;8.54;100.00;98224.88;4973672;28;20257;-69
2023/12/21 10:02:12;;;;;;;1.60;0.75;;;;;;;8.49;100.00;98224.81;4965447;28;20545;-69
2023/12/21 10:04:42;;;;;;;0.80;0.50;;;;;;;8.54;100.00;98204.13;4970159;28;20220;-69
2023/12/21 10:07:14;;;;;;;0.80;0.50;;;;;;;8.56;100.00;98195.78;4968994;28;20250;-69
2023/12/21 10:09:44;;;;;;;1.00;0.52;;;;;;;8.49;100.00;98169.03;4967096;28;20199;-68
2023/12/21 10:12:13;;;;;;;1.00;0.50;;;;;;;8.58;100.00;98180.16;4971793;28;20192;-68
2023/12/21 10:14:44;;;;;;;0.90;0.68;;;;;;;8.54;100.00;98174.47;4970395;28;20208;-69
2023/12/21 10:17:13;;;;;;;1.48;0.77;;;;;;;8.52;100.00;98156.94;4973324;28;20231;-70
2023/12/21 10:19:46;;;;;;;0.90;0.70;;;;;;;8.51;100.00;98158.00;4964778;28;20223;-69
2023/12/21 10:22:16;;;;;;;0.88;0.57;;;;;;;8.50;100.00;98142.91;4961752;28;20544;-70
2023/12/21 10:24:46;;;;;;;1.10;0.63;;;;;;;8.46;100.00;98118.38;4975350;28;20266;-69
2023/12/21 10:27:17;;;;;;;1.90;0.70;;;;;;;8.53;100.00;98105.47;4967756;28;20248;-71
2023/12/21 10:29:54;;;;;;;2.45;1.50;;;;;;;8.59;100.00;98100.94;4974184;28;20198;-71
2023/12/21 10:32:24;;;;;;;1.10;0.60;;;;;;;8.64;100.00;98091.03;4970488;28;20552;-70
2023/12/21 10:34:58;;;;;;;1.10;0.50;;;;;;;8.75;100.00;98086.53;4973305;28;20281;-70
2023/12/21 10:37:28;;;;;;;0.90;0.55;;;;;;;8.73;100.00;98075.19;4966504;28;20198;-69
2023/12/21 10:39:58;;;;;;;0.80;0.50;;;;;;;8.72;100.00;98065.47;4975277;28;20215;-70
2023/12/21 10:42:28;;;;;;;0.80;0.50;;;;;;;8.80;100.00;98048.81;4971677;28;20210;-70
2023/12/21 10:45:02;;;;;;;1.33;0.60;;;;;;;8.85;100.00;98027.28;4961684;28;20593;-70
2023/12/21 10:47:49;;;;;;;0.80;0.55;;;;;;;8.88;100.00;98028.63;4974258;28;20254;-69
2023/12/21 10:50:20;;;;;;;0.90;0.60;;;;;;;8.78;100.00;98034.78;4972153;28;20219;-70
2023/12/21 10:52:51;;;;;;;1.00;0.60;;;;;;;8.78;100.00;98007.81;4974335;28;20258;-70
2023/12/21 10:55:20;;;;;;;4.78;0.60;;;;;;;8.84;100.00;97993.31;4968535;28;20615;-70
2023/12/21 10:57:51;;;;;;;1.45;0.60;;;;;;;8.87;100.00;97984.69;4967195;28;20294;-70
2023/12/21 11:00:22;;;;;;;0.80;0.50;;;;;;;8.87;100.00;98010.81;4961778;28;20282;-72
2023/12/21 11:02:53;;;;;;;3.05;1.10;;;;;;;8.83;100.00;97962.00;4972266;28;20191;-70
2023/12/21 11:05:23;;;;;;;1.48;0.50;;;;;;;8.78;100.00;97963.88;4977063;28;20242;-69
2023/12/21 11:07:54;;;;;;;0.90;0.60;;;;;;;8.87;100.00;97957.72;4970876;28;20671;-69
2023/12/21 11:10:25;;;;;;;1.00;0.60;;;;;;;8.90;100.00;97951.81;4972997;28;20192;-69
2023/12/21 11:12:54;;;;;;;0.90;0.50;;;;;;;8.88;100.00;97943.16;4973390;28;20579;-71
2023/12/21 11:15:25;;;;;;;0.80;0.60;;;;;;;8.95;100.00;97927.56;4973163;28;20214;-69
2023/12/21 11:17:57;;;;;;;1.20;0.70;;;;;;;8.91;100.00;97902.19;4971366;28;20187;-70
2023/12/21 11:20:30;;;;;;;1.23;1.05;;;;;;;8.97;100.00;97925.41;4976139;28;20559;-69
2023/12/21 11:23:14;;;;;;;0.80;0.50;;;;;;;8.99;100.00;97907.09;4968456;28;20560;-69
2023/12/21 11:25:43;;;;;;;0.80;0.50;;;;;;;9.02;100.00;97895.75;4964228;28;20641;-69
2023/12/21 11:28:12;;;;;;;0.80;0.50;;;;;;;8.92;100.00;97895.72;4972803;28;20203;-72
2023/12/21 11:30:43;;;;;;;0.80;0.50;;;;;;;9.02;100.00;97900.34;4971767;28;20215;-71
2023/12/21 11:33:12;;;;;;;1.25;0.77;;;;;;;9.02;100.00;97889.56;4967640;28;20717;-70
2023/12/21 11:35:41;;;;;;;0.80;0.50;;;;;;;8.90;100.00;97875.50;4969536;28;20635;-70
2023/12/21 11:38:12;;;;;;;1.00;0.60;;;;;;;8.91;100.00;97877.91;4972456;28;20188;-70
2023/12/21 11:40:43;;;;;;;1.50;0.65;;;;;;;8.85;100.00;97868.22;4969856;28;20251;-70
2023/12/21 11:43:21;;;;;;;0.80;0.55;;;;;;;8.91;100.00;97861.72;4957175;28;20674;-71
2023/12/21 11:45:51;;;;;;;0.80;0.50;;;;;;;8.81;100.00;97861.69;4972280;28;20219;-70